Southampton, United Kingdom
Current Conditions -  °F | °C
As of 9:50 PM on Wednesday 26 Nov 2014 (Local Time) from EGHI Reporting Station
Light Rain Light Rain  
Wind Chill: 46°   Ceiling: 700
Heat Index: 46°   Visibility: 3mi
Dew Point: 45°   Wind: 3mph
Humidity: 93%   Direction: 360°N
Pressure: 29.77"   Gusts: NA
Location:  50.9°N, 1.4°W
Report Text: EGHI 262150Z 36003KT 5000 -RA BR SCT004 BKN007 08/07 Q1008
Loading
Personal Weather Stations






























Interactive Weather Map New forecast layout! Learn more

10-Day Weather Forecast

Advertisements
Track Severe Weather on mobile